createdAt,value
2023-05-06T00:01:07.919Z,61.34
2023-05-06T00:05:12.180Z,62.24
2023-05-06T00:09:16.452Z,62.15
2023-05-06T00:13:21.747Z,62.74
2023-05-06T00:17:25.112Z,62.72
2023-05-06T00:21:29.377Z,63.25
2023-05-06T00:25:33.095Z,62.66
2023-05-06T00:29:38.324Z,63.65
2023-05-06T00:33:41.580Z,64.16
2023-05-06T00:37:47.455Z,65.10
2023-05-06T00:41:50.930Z,64.24
2023-05-06T00:45:56.640Z,65.57
2023-05-06T00:50:00.050Z,65.81
2023-05-06T00:54:04.893Z,65.53
2023-05-06T00:58:08.888Z,66.81
2023-05-06T01:02:14.089Z,66.56
2023-05-06T01:06:23.952Z,65.66
2023-05-06T01:10:33.556Z,66.86
2023-05-06T01:14:43.672Z,66.90
2023-05-06T01:18:50.978Z,67.20
2023-05-06T01:22:55.251Z,67.77
2023-05-06T01:27:00.281Z,68.13
2023-05-06T01:31:10.717Z,67.50
2023-05-06T01:35:22.549Z,68.18
2023-05-06T01:39:28.493Z,69.17
2023-05-06T01:43:39.538Z,68.44
2023-05-06T01:47:43.638Z,68.63
2023-05-06T01:51:49.835Z,68.57
2023-05-06T01:55:53.015Z,68.40
2023-05-06T01:59:58.212Z,68.85
2023-05-06T02:04:02.232Z,69.11
2023-05-06T02:08:05.889Z,69.01
2023-05-06T02:12:09.683Z,69.79
2023-05-06T02:16:14.572Z,69.24
2023-05-06T02:20:18.349Z,69.38
2023-05-06T02:24:21.724Z,69.23
2023-05-06T02:28:25.395Z,70.54
2023-05-06T02:32:30.591Z,69.75
2023-05-06T02:36:33.877Z,69.74
2023-05-06T02:40:37.623Z,69.70
2023-05-06T02:44:41.169Z,69.82
2023-05-06T02:48:46.404Z,69.64
2023-05-06T02:52:49.677Z,69.63
2023-05-06T02:56:53.092Z,69.90
2023-05-06T03:00:56.661Z,70.28
2023-05-06T03:05:02.123Z,69.74
2023-05-06T03:09:05.463Z,70.21
2023-05-06T03:13:08.788Z,70.36
2023-05-06T03:17:12.060Z,69.01
2023-05-06T03:21:17.535Z,69.60
2023-05-06T03:25:21.414Z,69.26
2023-05-06T03:29:24.989Z,69.40
2023-05-06T03:33:28.220Z,69.39
2023-05-06T03:37:33.473Z,69.78
2023-05-06T03:41:37.216Z,69.07
2023-05-06T03:45:40.669Z,70.03
2023-05-06T03:49:44.486Z,70.40
2023-05-06T03:53:49.421Z,70.41
2023-05-06T03:57:53.376Z,70.64
2023-05-06T04:01:57.106Z,70.87
2023-05-06T04:06:00.718Z,71.20
2023-05-06T04:10:06.469Z,71.33
2023-05-06T04:14:09.878Z,71.21
2023-05-06T04:18:19.479Z,71.50
2023-05-06T04:22:23.086Z,71.48
2023-05-06T04:26:28.416Z,71.44
2023-05-06T04:30:31.794Z,71.25
2023-05-06T04:34:36.494Z,71.10
2023-05-06T04:38:40.043Z,70.56
2023-05-06T04:42:44.948Z,70.09
2023-05-06T04:46:49.780Z,70.05
2023-05-06T04:50:53.349Z,70.31
2023-05-06T04:54:56.797Z,70.11
2023-05-06T04:59:01.763Z,69.71
2023-05-06T05:03:05.608Z,69.04
2023-05-06T05:07:09.240Z,69.36
2023-05-06T05:11:12.757Z,69.12
2023-05-06T05:15:17.689Z,69.16
2023-05-06T05:19:21.653Z,69.18
2023-05-06T05:23:24.875Z,69.03
2023-05-06T05:27:28.280Z,68.35
2023-05-06T05:31:33.543Z,68.54
2023-05-06T05:35:36.944Z,67.53
2023-05-06T05:39:40.674Z,67.71
2023-05-06T05:43:44.454Z,67.58
2023-05-06T05:47:51.179Z,67.30
2023-05-06T05:51:54.839Z,66.27
2023-05-06T05:55:58.184Z,66.36
2023-05-06T06:00:02.085Z,65.86
2023-05-06T06:04:07.224Z,64.80
2023-05-06T06:08:11.568Z,64.68
2023-05-06T06:12:15.362Z,63.13
2023-05-06T06:16:19.098Z,62.50
2023-05-06T06:20:24.479Z,61.50
2023-05-06T06:24:27.925Z,60.00
2023-05-06T06:28:31.736Z,59.52
2023-05-06T06:32:35.184Z,59.76
2023-05-06T06:36:45.534Z,60.29
2023-05-06T06:40:49.683Z,57.92
2023-05-06T06:44:54.306Z,57.39
2023-05-06T06:48:57.606Z,56.86
2023-05-06T06:53:04.790Z,57.92
2023-05-06T06:57:09.945Z,57.71
2023-05-06T07:01:13.420Z,57.41
2023-05-06T07:05:17.749Z,57.05
2023-05-06T07:09:22.813Z,55.50
2023-05-06T07:13:26.295Z,56.44
2023-05-06T07:17:29.572Z,55.57
2023-05-06T07:21:33.369Z,55.59
2023-05-06T07:25:38.547Z,55.07
2023-05-06T07:29:42.082Z,55.33
2023-05-06T07:33:45.159Z,55.17
2023-05-06T07:37:48.698Z,56.42
2023-05-06T07:41:54.292Z,55.77
2023-05-06T07:46:03.412Z,54.21
2023-05-06T07:50:07.513Z,54.86
2023-05-06T07:54:11.536Z,53.72
2023-05-06T07:58:16.543Z,54.07
2023-05-06T08:02:20.091Z,54.25
2023-05-06T08:06:23.963Z,52.78
2023-05-06T08:10:27.719Z,50.90
2023-05-06T08:14:33.384Z,51.24
2023-05-06T08:18:36.795Z,49.27
2023-05-06T08:22:40.661Z,48.18
2023-05-06T08:26:44.083Z,47.62
2023-05-06T08:30:51.821Z,48.60
2023-05-06T08:34:55.392Z,47.58
2023-05-06T08:38:59.036Z,48.64
2023-05-06T08:43:05.143Z,46.62
2023-05-06T08:47:10.727Z,47.29
2023-05-06T08:51:16.985Z,48.89
2023-05-06T08:55:21.703Z,47.63
2023-05-06T08:59:26.952Z,48.18
2023-05-06T09:03:32.784Z,48.06
2023-05-06T09:07:36.120Z,44.98
2023-05-06T09:11:40.595Z,45.22
2023-05-06T09:15:47.385Z,46.36
2023-05-06T09:19:54.825Z,46.63
2023-05-06T09:23:58.952Z,45.73
2023-05-06T09:28:06.594Z,44.64
2023-05-06T09:32:11.065Z,44.69
2023-05-06T09:36:16.178Z,46.01
2023-05-06T09:40:20.356Z,44.93
2023-05-06T09:44:24.249Z,43.09
2023-05-06T09:48:31.262Z,44.05
2023-05-06T09:52:37.501Z,44.69
2023-05-06T09:56:41.582Z,40.61
2023-05-06T10:00:47.357Z,42.16
2023-05-06T10:04:51.761Z,41.93
2023-05-06T10:08:58.488Z,42.22
2023-05-06T10:13:04.827Z,43.14
2023-05-06T10:17:10.084Z,44.85
2023-05-06T10:21:22.338Z,46.39
2023-05-06T10:25:36.520Z,45.83
2023-05-06T10:29:40.705Z,44.75
2023-05-06T10:33:47.642Z,43.82
2023-05-06T10:37:54.084Z,44.19
2023-05-06T10:41:59.048Z,44.54
2023-05-06T10:46:09.796Z,45.24
2023-05-06T10:50:23.574Z,46.49
2023-05-06T10:54:27.726Z,47.58
2023-05-06T10:58:37.997Z,46.42
2023-05-06T11:02:46.178Z,45.42
2023-05-06T11:06:51.641Z,45.45
2023-05-06T11:10:55.934Z,42.59
2023-05-06T11:15:21.077Z,43.60
2023-05-06T11:19:26.814Z,39.98
2023-05-06T11:24:05.672Z,41.90
2023-05-06T11:28:10.985Z,43.09
2023-05-06T11:32:24.344Z,42.91
2023-05-06T11:36:29.391Z,41.96
2023-05-06T11:40:32.987Z,42.13
2023-05-06T11:44:41.291Z,43.48
2023-05-06T11:48:46.170Z,44.41
2023-05-06T11:52:51.604Z,44.71
2023-05-06T11:56:56.899Z,45.09
2023-05-06T12:01:02.677Z,46.10
2023-05-06T12:05:10.730Z,47.83
2023-05-06T12:09:14.789Z,48.32
2023-05-06T12:13:18.768Z,48.43
2023-05-06T12:17:22.522Z,47.42
2023-05-06T12:21:28.538Z,48.26
2023-05-06T12:25:32.351Z,47.84
2023-05-06T12:29:35.439Z,47.52
2023-05-06T12:33:47.269Z,47.03
2023-05-06T12:37:52.188Z,45.80
2023-05-06T12:41:56.557Z,44.88
2023-05-06T12:46:07.509Z,43.30
2023-05-06T12:50:12.335Z,42.78
2023-05-06T12:54:32.857Z,43.54
2023-05-06T12:58:38.366Z,41.84
2023-05-06T13:02:42.384Z,43.00
2023-05-06T13:06:45.931Z,43.91
2023-05-06T13:10:50.772Z,43.64
2023-05-06T13:14:54.241Z,41.63
2023-05-06T13:18:58.129Z,42.40
2023-05-06T13:23:01.739Z,40.19
2023-05-06T13:27:06.951Z,41.45
2023-05-06T13:31:10.277Z,40.87
2023-05-06T13:35:14.435Z,41.57
2023-05-06T13:39:18.175Z,40.14
2023-05-06T13:43:25.193Z,40.29
2023-05-06T13:47:28.704Z,37.37
2023-05-06T13:51:33.893Z,39.94
2023-05-06T13:55:37.292Z,39.71
2023-05-06T13:59:42.541Z,38.18
2023-05-06T14:03:46.753Z,39.81
2023-05-06T14:07:50.299Z,39.42
2023-05-06T14:11:54.082Z,38.47
2023-05-06T14:15:59.569Z,37.66
2023-05-06T14:20:06.093Z,37.73
2023-05-06T14:24:11.031Z,39.62
2023-05-06T14:28:16.304Z,38.13
2023-05-06T14:32:21.263Z,38.57
2023-05-06T14:36:26.639Z,38.37
2023-05-06T14:40:29.679Z,36.38
2023-05-06T14:44:33.549Z,36.84
2023-05-06T14:48:38.152Z,37.96
2023-05-06T14:52:42.546Z,37.39
2023-05-06T14:56:49.563Z,37.45
2023-05-06T15:00:52.792Z,36.82
2023-05-06T15:04:57.809Z,38.58
2023-05-06T15:09:01.123Z,37.22
2023-05-06T15:13:04.632Z,37.81
2023-05-06T15:17:08.186Z,37.86
2023-05-06T15:21:14.029Z,36.93
2023-05-06T15:25:33.524Z,38.36
2023-05-06T15:29:39.596Z,37.33
2023-05-06T15:33:43.224Z,39.04
2023-05-06T15:37:47.929Z,38.52
2023-05-06T15:41:52.902Z,37.48
2023-05-06T15:45:56.798Z,38.08
2023-05-06T15:50:16.519Z,37.34
2023-05-06T15:54:25.744Z,37.72
2023-05-06T15:58:28.985Z,36.85
2023-05-06T16:02:33.246Z,37.47
2023-05-06T16:06:36.893Z,37.73
2023-05-06T16:10:42.421Z,37.53
2023-05-06T16:14:55.248Z,40.03
2023-05-06T16:18:58.515Z,38.41
2023-05-06T16:23:01.822Z,37.84
2023-05-06T16:27:07.268Z,39.21
2023-05-06T16:31:10.258Z,39.94
2023-05-06T16:35:13.999Z,38.74
2023-05-06T16:39:17.264Z,39.13
2023-05-06T16:43:22.677Z,40.23
2023-05-06T16:47:26.406Z,39.79
2023-05-06T16:51:30.526Z,39.59
2023-05-06T16:55:34.080Z,39.13
2023-05-06T16:59:40.772Z,39.17
2023-05-06T17:03:44.311Z,38.96
2023-05-06T17:07:48.509Z,39.50
2023-05-06T17:11:53.289Z,39.45
2023-05-06T17:15:58.245Z,40.31
2023-05-06T17:20:02.013Z,41.30
2023-05-06T17:24:06.541Z,43.60
2023-05-06T17:28:12.436Z,44.66
2023-05-06T17:32:17.490Z,45.45
2023-05-06T17:36:24.393Z,47.15
2023-05-06T17:40:27.327Z,46.90
2023-05-06T17:44:31.253Z,47.79
2023-05-06T17:48:35.964Z,48.32
2023-05-06T17:52:40.398Z,49.25
2023-05-06T17:56:49.237Z,49.73
2023-05-06T18:00:53.064Z,49.79
2023-05-06T18:04:58.265Z,51.16
2023-05-06T18:09:01.921Z,51.81
2023-05-06T18:13:05.301Z,53.28
2023-05-06T18:17:11.304Z,53.07
2023-05-06T18:21:16.073Z,54.32
2023-05-06T18:25:19.630Z,54.41
2023-05-06T18:29:23.229Z,55.48
2023-05-06T18:33:26.869Z,56.58
2023-05-06T18:37:32.487Z,56.13
2023-05-06T18:41:35.605Z,57.33
2023-05-06T18:45:39.614Z,57.22
2023-05-06T18:49:43.520Z,57.55
2023-05-06T18:53:48.150Z,57.43
2023-05-06T18:57:51.776Z,58.80
2023-05-06T19:01:55.467Z,59.34
2023-05-06T19:06:02.654Z,58.45
2023-05-06T19:10:10.949Z,59.54
2023-05-06T19:14:14.291Z,60.30
2023-05-06T19:18:18.169Z,60.74
2023-05-06T19:22:21.513Z,61.17
2023-05-06T19:26:27.242Z,61.17
2023-05-06T19:30:33.849Z,61.02
2023-05-06T19:34:37.705Z,61.50
2023-05-06T19:38:40.963Z,60.97
2023-05-06T19:42:46.494Z,60.45
2023-05-06T19:46:51.556Z,60.88
2023-05-06T19:50:59.296Z,61.19
2023-05-06T19:55:14.625Z,60.81
2023-05-06T19:59:19.199Z,60.77
2023-05-06T20:03:29.063Z,61.04
2023-05-06T20:07:32.586Z,61.44
2023-05-06T20:11:38.192Z,61.37
2023-05-06T20:15:45.537Z,62.17
2023-05-06T20:19:53.326Z,62.53
2023-05-06T20:23:57.030Z,63.34
2023-05-06T20:28:03.631Z,63.14
2023-05-06T20:32:11.172Z,63.51
2023-05-06T20:36:17.912Z,62.77
2023-05-06T20:40:22.117Z,62.75
2023-05-06T20:44:26.144Z,63.09
2023-05-06T20:48:35.995Z,63.00
2023-05-06T20:52:39.862Z,63.08
2023-05-06T20:56:43.591Z,62.82
2023-05-06T21:00:46.862Z,62.53
2023-05-06T21:04:53.835Z,62.80
2023-05-06T21:08:58.656Z,63.14
2023-05-06T21:13:02.388Z,62.73
2023-05-06T21:17:06.310Z,62.91
2023-05-06T21:21:10.977Z,62.94
2023-05-06T21:25:14.621Z,62.68
2023-05-06T21:29:18.251Z,63.48
2023-05-06T21:33:21.928Z,63.58
2023-05-06T21:37:26.409Z,63.60
2023-05-06T21:41:30.772Z,64.33
2023-05-06T21:45:34.029Z,64.91
2023-05-06T21:49:37.344Z,65.23
2023-05-06T21:53:42.279Z,65.03
2023-05-06T21:57:47.565Z,65.47
2023-05-06T22:01:50.778Z,65.89
2023-05-06T22:05:54.541Z,65.80
2023-05-06T22:09:59.070Z,66.18
2023-05-06T22:14:02.993Z,66.56
2023-05-06T22:18:08.732Z,66.37
2023-05-06T22:22:14.163Z,66.31
2023-05-06T22:26:19.197Z,66.64
2023-05-06T22:30:23.316Z,66.64
2023-05-06T22:34:26.295Z,67.04
2023-05-06T22:38:30.189Z,67.28
2023-05-06T22:42:35.056Z,66.83
2023-05-06T22:46:39.082Z,67.17
2023-05-06T22:50:42.993Z,67.59
2023-05-06T22:54:46.392Z,67.34
2023-05-06T22:58:50.908Z,67.71
2023-05-06T23:02:54.820Z,68.08
2023-05-06T23:06:58.752Z,68.25
2023-05-06T23:11:02.635Z,68.91
2023-05-06T23:15:09.161Z,67.75
2023-05-06T23:19:12.785Z,67.82
2023-05-06T23:23:16.103Z,67.82
2023-05-06T23:27:19.666Z,67.79
2023-05-06T23:31:24.817Z,67.54
2023-05-06T23:35:28.331Z,66.83
2023-05-06T23:39:31.446Z,67.03
2023-05-06T23:43:34.938Z,67.42
2023-05-06T23:47:39.953Z,67.50
2023-05-06T23:51:43.388Z,67.47
2023-05-06T23:55:46.557Z,67.86
2023-05-06T23:59:49.907Z,68.00
